sensor_id;sensor_type;location;lat;lon;timestamp;P1;durP1;ratioP1;P2;durP2;ratioP2
4650;SDS011;2338;49.602;8.722;2024-03-22T00:00:54;8.80;;;6.97;;
4650;SDS011;2338;49.602;8.722;2024-03-22T00:03:38;10.83;;;7.73;;
4650;SDS011;2338;49.602;8.722;2024-03-22T00:06:24;13.03;;;8.40;;
4650;SDS011;2338;49.602;8.722;2024-03-22T00:09:09;9.00;;;6.73;;
4650;SDS011;2338;49.602;8.722;2024-03-22T00:11:55;9.07;;;7.00;;
4650;SDS011;2338;49.602;8.722;2024-03-22T00:14:41;18.53;;;8.37;;
4650;SDS011;2338;49.602;8.722;2024-03-22T00:17:27;11.40;;;8.20;;
4650;SDS011;2338;49.602;8.722;2024-03-22T00:20:11;11.50;;;8.20;;
4650;SDS011;2338;49.602;8.722;2024-03-22T00:22:57;10.30;;;7.43;;
4650;SDS011;2338;49.602;8.722;2024-03-22T00:25:41;9.30;;;7.20;;
4650;SDS011;2338;49.602;8.722;2024-03-22T00:28:27;11.87;;;7.57;;
4650;SDS011;2338;49.602;8.722;2024-03-22T00:31:13;10.20;;;6.87;;
4650;SDS011;2338;49.602;8.722;2024-03-22T00:33:59;8.67;;;7.10;;
4650;SDS011;2338;49.602;8.722;2024-03-22T00:36:43;12.60;;;6.87;;
4650;SDS011;2338;49.602;8.722;2024-03-22T00:39:29;9.17;;;7.77;;
4650;SDS011;2338;49.602;8.722;2024-03-22T00:42:14;11.57;;;7.47;;
4650;SDS011;2338;49.602;8.722;2024-03-22T00:44:59;8.67;;;7.07;;
4650;SDS011;2338;49.602;8.722;2024-03-22T00:47:45;8.70;;;6.67;;
4650;SDS011;2338;49.602;8.722;2024-03-22T00:50:31;11.80;;;7.60;;
4650;SDS011;2338;49.602;8.722;2024-03-22T00:53:15;13.10;;;7.67;;
4650;SDS011;2338;49.602;8.722;2024-03-22T00:56:01;11.33;;;7.73;;
4650;SDS011;2338;49.602;8.722;2024-03-22T00:58:46;10.20;;;7.67;;
4650;SDS011;2338;49.602;8.722;2024-03-22T01:01:32;11.80;;;7.87;;
4650;SDS011;2338;49.602;8.722;2024-03-22T01:04:18;10.03;;;7.30;;
4650;SDS011;2338;49.602;8.722;2024-03-22T01:07:04;10.53;;;7.20;;
4650;SDS011;2338;49.602;8.722;2024-03-22T01:09:49;8.03;;;6.67;;
4650;SDS011;2338;49.602;8.722;2024-03-22T01:12:34;12.33;;;7.67;;
4650;SDS011;2338;49.602;8.722;2024-03-22T01:15:19;13.90;;;8.23;;
4650;SDS011;2338;49.602;8.722;2024-03-22T01:18:05;9.87;;;7.30;;
4650;SDS011;2338;49.602;8.722;2024-03-22T01:20:50;8.70;;;6.60;;
4650;SDS011;2338;49.602;8.722;2024-03-22T01:23:36;13.60;;;8.10;;
4650;SDS011;2338;49.602;8.722;2024-03-22T01:26:21;10.40;;;6.43;;
4650;SDS011;2338;49.602;8.722;2024-03-22T01:29:07;10.47;;;6.80;;
4650;SDS011;2338;49.602;8.722;2024-03-22T01:31:51;11.20;;;7.33;;
4650;SDS011;2338;49.602;8.722;2024-03-22T01:34:37;8.80;;;6.53;;
4650;SDS011;2338;49.602;8.722;2024-03-22T01:37:23;11.40;;;7.57;;
4650;SDS011;2338;49.602;8.722;2024-03-22T01:40:09;9.50;;;7.13;;
4650;SDS011;2338;49.602;8.722;2024-03-22T01:42:56;9.53;;;7.57;;
4650;SDS011;2338;49.602;8.722;2024-03-22T01:45:41;13.97;;;7.10;;
4650;SDS011;2338;49.602;8.722;2024-03-22T01:48:26;12.10;;;7.60;;
4650;SDS011;2338;49.602;8.722;2024-03-22T01:51:11;10.27;;;7.43;;
4650;SDS011;2338;49.602;8.722;2024-03-22T01:53:59;10.90;;;6.50;;
4650;SDS011;2338;49.602;8.722;2024-03-22T01:56:47;13.23;;;7.77;;
4650;SDS011;2338;49.602;8.722;2024-03-22T01:59:33;9.83;;;7.70;;
4650;SDS011;2338;49.602;8.722;2024-03-22T02:02:18;11.60;;;7.60;;
4650;SDS011;2338;49.602;8.722;2024-03-22T02:05:11;10.20;;;7.77;;
4650;SDS011;2338;49.602;8.722;2024-03-22T02:07:56;12.40;;;8.07;;
4650;SDS011;2338;49.602;8.722;2024-03-22T02:10:43;13.03;;;7.70;;
4650;SDS011;2338;49.602;8.722;2024-03-22T02:13:29;11.27;;;7.10;;
4650;SDS011;2338;49.602;8.722;2024-03-22T02:16:14;18.30;;;8.37;;
4650;SDS011;2338;49.602;8.722;2024-03-22T02:18:59;9.47;;;7.77;;
4650;SDS011;2338;49.602;8.722;2024-03-22T02:21:45;13.03;;;8.63;;
4650;SDS011;2338;49.602;8.722;2024-03-22T02:24:32;8.97;;;6.67;;
4650;SDS011;2338;49.602;8.722;2024-03-22T02:27:16;10.50;;;7.57;;
4650;SDS011;2338;49.602;8.722;2024-03-22T02:30:02;14.80;;;7.50;;
4650;SDS011;2338;49.602;8.722;2024-03-22T02:32:48;14.30;;;8.77;;
4650;SDS011;2338;49.602;8.722;2024-03-22T02:35:33;12.07;;;7.77;;
4650;SDS011;2338;49.602;8.722;2024-03-22T02:38:18;13.60;;;8.30;;
4650;SDS011;2338;49.602;8.722;2024-03-22T02:41:05;11.37;;;8.53;;
4650;SDS011;2338;49.602;8.722;2024-03-22T02:43:50;10.73;;;7.53;;
4650;SDS011;2338;49.602;8.722;2024-03-22T02:46:35;10.00;;;7.63;;
4650;SDS011;2338;49.602;8.722;2024-03-22T02:49:20;11.57;;;8.40;;
4650;SDS011;2338;49.602;8.722;2024-03-22T02:52:06;13.80;;;9.57;;
4650;SDS011;2338;49.602;8.722;2024-03-22T02:54:50;9.47;;;7.43;;
4650;SDS011;2338;49.602;8.722;2024-03-22T02:57:37;16.30;;;8.67;;
4650;SDS011;2338;49.602;8.722;2024-03-22T03:00:22;11.90;;;9.03;;
4650;SDS011;2338;49.602;8.722;2024-03-22T03:03:08;15.97;;;8.60;;
4650;SDS011;2338;49.602;8.722;2024-03-22T03:05:53;12.93;;;9.13;;
4650;SDS011;2338;49.602;8.722;2024-03-22T03:08:39;15.90;;;10.67;;
4650;SDS011;2338;49.602;8.722;2024-03-22T03:11:24;15.93;;;9.77;;
4650;SDS011;2338;49.602;8.722;2024-03-22T03:14:11;11.93;;;8.87;;
4650;SDS011;2338;49.602;8.722;2024-03-22T03:16:55;10.57;;;7.90;;
4650;SDS011;2338;49.602;8.722;2024-03-22T03:19:41;17.63;;;8.80;;
4650;SDS011;2338;49.602;8.722;2024-03-22T03:22:26;14.03;;;9.77;;
4650;SDS011;2338;49.602;8.722;2024-03-22T03:25:12;14.37;;;10.70;;
4650;SDS011;2338;49.602;8.722;2024-03-22T03:27:57;12.40;;;7.90;;
4650;SDS011;2338;49.602;8.722;2024-03-22T03:30:43;14.23;;;10.00;;
4650;SDS011;2338;49.602;8.722;2024-03-22T03:33:28;11.53;;;8.83;;
4650;SDS011;2338;49.602;8.722;2024-03-22T03:36:14;11.67;;;9.23;;
4650;SDS011;2338;49.602;8.722;2024-03-22T03:38:59;10.80;;;9.00;;
4650;SDS011;2338;49.602;8.722;2024-03-22T03:41:44;10.67;;;7.80;;
4650;SDS011;2338;49.602;8.722;2024-03-22T03:44:29;12.17;;;8.33;;
4650;SDS011;2338;49.602;8.722;2024-03-22T03:47:16;15.67;;;9.60;;
4650;SDS011;2338;49.602;8.722;2024-03-22T03:50:02;12.50;;;8.90;;
4650;SDS011;2338;49.602;8.722;2024-03-22T03:52:47;16.00;;;9.80;;
4650;SDS011;2338;49.602;8.722;2024-03-22T03:55:33;10.30;;;7.13;;
4650;SDS011;2338;49.602;8.722;2024-03-22T03:58:17;14.40;;;9.20;;
4650;SDS011;2338;49.602;8.722;2024-03-22T04:01:04;12.93;;;9.00;;
4650;SDS011;2338;49.602;8.722;2024-03-22T04:03:51;13.07;;;9.30;;
4650;SDS011;2338;49.602;8.722;2024-03-22T04:06:36;13.87;;;8.60;;
4650;SDS011;2338;49.602;8.722;2024-03-22T04:09:21;12.27;;;9.97;;
4650;SDS011;2338;49.602;8.722;2024-03-22T04:12:07;13.97;;;10.80;;
4650;SDS011;2338;49.602;8.722;2024-03-22T04:14:51;13.23;;;10.00;;
4650;SDS011;2338;49.602;8.722;2024-03-22T04:17:37;14.70;;;10.40;;
4650;SDS011;2338;49.602;8.722;2024-03-22T04:20:24;14.00;;;9.50;;
4650;SDS011;2338;49.602;8.722;2024-03-22T04:23:09;13.40;;;9.40;;
4650;SDS011;2338;49.602;8.722;2024-03-22T04:25:55;11.67;;;8.43;;
4650;SDS011;2338;49.602;8.722;2024-03-22T04:28:40;14.47;;;9.17;;
4650;SDS011;2338;49.602;8.722;2024-03-22T04:31:26;15.57;;;10.20;;
4650;SDS011;2338;49.602;8.722;2024-03-22T04:34:10;13.10;;;9.23;;
4650;SDS011;2338;49.602;8.722;2024-03-22T04:36:57;12.90;;;8.37;;
4650;SDS011;2338;49.602;8.722;2024-03-22T04:39:45;16.80;;;10.63;;
4650;SDS011;2338;49.602;8.722;2024-03-22T04:42:31;13.20;;;9.00;;
4650;SDS011;2338;49.602;8.722;2024-03-22T04:45:16;16.50;;;9.90;;
4650;SDS011;2338;49.602;8.722;2024-03-22T04:48:03;13.40;;;10.13;;
4650;SDS011;2338;49.602;8.722;2024-03-22T04:50:48;15.27;;;9.83;;
4650;SDS011;2338;49.602;8.722;2024-03-22T04:53:36;13.70;;;9.70;;
4650;SDS011;2338;49.602;8.722;2024-03-22T04:56:20;15.40;;;10.23;;
4650;SDS011;2338;49.602;8.722;2024-03-22T04:59:06;14.53;;;10.67;;
4650;SDS011;2338;49.602;8.722;2024-03-22T05:01:51;15.83;;;9.80;;
4650;SDS011;2338;49.602;8.722;2024-03-22T05:04:37;16.43;;;10.23;;
4650;SDS011;2338;49.602;8.722;2024-03-22T05:07:21;13.60;;;9.50;;
4650;SDS011;2338;49.602;8.722;2024-03-22T05:10:09;16.30;;;11.73;;
4650;SDS011;2338;49.602;8.722;2024-03-22T05:12:54;13.43;;;10.00;;
4650;SDS011;2338;49.602;8.722;2024-03-22T05:15:39;12.47;;;9.70;;
4650;SDS011;2338;49.602;8.722;2024-03-22T05:18:24;19.43;;;10.70;;
4650;SDS011;2338;49.602;8.722;2024-03-22T05:21:10;13.97;;;9.97;;
4650;SDS011;2338;49.602;8.722;2024-03-22T05:23:54;15.80;;;10.53;;
4650;SDS011;2338;49.602;8.722;2024-03-22T05:26:41;17.37;;;11.07;;
4650;SDS011;2338;49.602;8.722;2024-03-22T05:29:27;13.80;;;10.53;;
4650;SDS011;2338;49.602;8.722;2024-03-22T05:32:11;15.97;;;9.13;;
4650;SDS011;2338;49.602;8.722;2024-03-22T05:34:57;11.83;;;9.00;;
4650;SDS011;2338;49.602;8.722;2024-03-22T05:37:41;13.30;;;10.17;;
4650;SDS011;2338;49.602;8.722;2024-03-22T05:40:27;16.10;;;9.70;;
4650;SDS011;2338;49.602;8.722;2024-03-22T05:43:13;24.20;;;11.13;;
4650;SDS011;2338;49.602;8.722;2024-03-22T05:45:59;16.35;;;10.18;;
4650;SDS011;2338;49.602;8.722;2024-03-22T05:48:43;14.23;;;10.17;;
4650;SDS011;2338;49.602;8.722;2024-03-22T05:51:29;16.10;;;10.60;;
4650;SDS011;2338;49.602;8.722;2024-03-22T05:54:15;17.27;;;13.70;;
4650;SDS011;2338;49.602;8.722;2024-03-22T05:57:00;19.87;;;15.20;;
4650;SDS011;2338;49.602;8.722;2024-03-22T05:59:47;18.23;;;12.97;;
4650;SDS011;2338;49.602;8.722;2024-03-22T06:02:33;18.83;;;13.80;;
4650;SDS011;2338;49.602;8.722;2024-03-22T06:05:18;18.00;;;11.40;;
4650;SDS011;2338;49.602;8.722;2024-03-22T06:08:03;13.70;;;8.83;;
4650;SDS011;2338;49.602;8.722;2024-03-22T06:10:50;15.63;;;11.27;;
4650;SDS011;2338;49.602;8.722;2024-03-22T06:13:35;15.40;;;10.50;;
4650;SDS011;2338;49.602;8.722;2024-03-22T06:16:21;15.97;;;10.60;;
4650;SDS011;2338;49.602;8.722;2024-03-22T06:19:06;13.60;;;10.43;;
4650;SDS011;2338;49.602;8.722;2024-03-22T06:21:52;17.60;;;12.30;;
4650;SDS011;2338;49.602;8.722;2024-03-22T06:24:36;19.30;;;12.20;;
4650;SDS011;2338;49.602;8.722;2024-03-22T06:27:22;19.43;;;12.43;;
4650;SDS011;2338;49.602;8.722;2024-03-22T06:30:07;15.73;;;12.67;;
4650;SDS011;2338;49.602;8.722;2024-03-22T06:32:54;18.63;;;11.87;;
4650;SDS011;2338;49.602;8.722;2024-03-22T06:35:38;20.47;;;12.57;;
4650;SDS011;2338;49.602;8.722;2024-03-22T06:38:25;20.20;;;12.20;;
4650;SDS011;2338;49.602;8.722;2024-03-22T06:41:11;20.67;;;13.50;;
4650;SDS011;2338;49.602;8.722;2024-03-22T06:43:56;23.90;;;14.23;;
4650;SDS011;2338;49.602;8.722;2024-03-22T06:46:41;32.70;;;15.10;;
4650;SDS011;2338;49.602;8.722;2024-03-22T06:49:27;26.43;;;14.30;;
4650;SDS011;2338;49.602;8.722;2024-03-22T06:52:13;20.10;;;14.40;;
4650;SDS011;2338;49.602;8.722;2024-03-22T06:54:58;21.07;;;13.60;;
4650;SDS011;2338;49.602;8.722;2024-03-22T06:57:45;19.00;;;13.00;;
4650;SDS011;2338;49.602;8.722;2024-03-22T07:00:30;19.47;;;12.47;;
4650;SDS011;2338;49.602;8.722;2024-03-22T07:03:17;18.33;;;12.07;;
4650;SDS011;2338;49.602;8.722;2024-03-22T07:06:04;23.90;;;14.30;;
4650;SDS011;2338;49.602;8.722;2024-03-22T07:08:53;21.57;;;13.20;;
4650;SDS011;2338;49.602;8.722;2024-03-22T07:11:38;24.53;;;13.80;;
4650;SDS011;2338;49.602;8.722;2024-03-22T07:14:23;24.40;;;13.60;;
4650;SDS011;2338;49.602;8.722;2024-03-22T07:17:09;23.47;;;13.77;;
4650;SDS011;2338;49.602;8.722;2024-03-22T07:19:53;19.80;;;12.87;;
4650;SDS011;2338;49.602;8.722;2024-03-22T07:22:41;21.40;;;13.40;;
4650;SDS011;2338;49.602;8.722;2024-03-22T07:25:25;19.50;;;13.77;;
4650;SDS011;2338;49.602;8.722;2024-03-22T07:28:11;20.77;;;13.43;;
4650;SDS011;2338;49.602;8.722;2024-03-22T07:30:56;21.03;;;14.07;;
4650;SDS011;2338;49.602;8.722;2024-03-22T07:33:41;21.90;;;12.07;;
4650;SDS011;2338;49.602;8.722;2024-03-22T07:36:27;18.70;;;12.60;;
4650;SDS011;2338;49.602;8.722;2024-03-22T07:39:13;21.60;;;14.00;;
4650;SDS011;2338;49.602;8.722;2024-03-22T07:41:59;21.80;;;13.30;;
4650;SDS011;2338;49.602;8.722;2024-03-22T07:44:43;22.10;;;12.93;;
4650;SDS011;2338;49.602;8.722;2024-03-22T07:47:29;19.20;;;13.47;;
4650;SDS011;2338;49.602;8.722;2024-03-22T07:50:14;20.43;;;13.30;;
4650;SDS011;2338;49.602;8.722;2024-03-22T07:53:00;21.30;;;14.20;;
4650;SDS011;2338;49.602;8.722;2024-03-22T07:55:46;19.37;;;13.27;;
4650;SDS011;2338;49.602;8.722;2024-03-22T07:58:32;21.53;;;13.50;;
4650;SDS011;2338;49.602;8.722;2024-03-22T08:01:17;20.50;;;14.30;;
4650;SDS011;2338;49.602;8.722;2024-03-22T08:04:03;25.80;;;13.57;;
4650;SDS011;2338;49.602;8.722;2024-03-22T08:06:50;23.67;;;14.27;;
4650;SDS011;2338;49.602;8.722;2024-03-22T08:09:36;21.33;;;12.97;;
4650;SDS011;2338;49.602;8.722;2024-03-22T08:12:22;21.60;;;13.67;;
4650;SDS011;2338;49.602;8.722;2024-03-22T08:15:08;24.93;;;14.13;;
4650;SDS011;2338;49.602;8.722;2024-03-22T08:17:53;21.60;;;14.00;;
4650;SDS011;2338;49.602;8.722;2024-03-22T08:20:41;21.57;;;13.27;;
4650;SDS011;2338;49.602;8.722;2024-03-22T08:23:26;21.93;;;12.50;;
4650;SDS011;2338;49.602;8.722;2024-03-22T08:26:12;27.47;;;14.70;;
4650;SDS011;2338;49.602;8.722;2024-03-22T08:28:59;21.37;;;13.63;;
4650;SDS011;2338;49.602;8.722;2024-03-22T08:31:44;18.67;;;13.50;;
4650;SDS011;2338;49.602;8.722;2024-03-22T08:34:29;18.37;;;11.37;;
4650;SDS011;2338;49.602;8.722;2024-03-22T08:37:15;20.37;;;12.67;;
4650;SDS011;2338;49.602;8.722;2024-03-22T08:40:00;25.73;;;14.30;;
4650;SDS011;2338;49.602;8.722;2024-03-22T08:42:48;23.10;;;13.30;;
4650;SDS011;2338;49.602;8.722;2024-03-22T08:45:34;23.80;;;14.07;;
4650;SDS011;2338;49.602;8.722;2024-03-22T08:48:20;18.27;;;12.30;;
4650;SDS011;2338;49.602;8.722;2024-03-22T08:51:04;20.90;;;13.90;;
4650;SDS011;2338;49.602;8.722;2024-03-22T08:53:50;20.10;;;14.07;;
4650;SDS011;2338;49.602;8.722;2024-03-22T08:56:35;19.97;;;13.93;;
4650;SDS011;2338;49.602;8.722;2024-03-22T08:59:20;19.23;;;12.63;;
4650;SDS011;2338;49.602;8.722;2024-03-22T09:02:08;20.43;;;12.00;;
4650;SDS011;2338;49.602;8.722;2024-03-22T09:04:54;23.37;;;14.07;;
4650;SDS011;2338;49.602;8.722;2024-03-22T09:07:39;23.20;;;12.63;;
4650;SDS011;2338;49.602;8.722;2024-03-22T09:10:25;26.63;;;12.40;;
4650;SDS011;2338;49.602;8.722;2024-03-22T09:13:10;21.27;;;13.37;;
4650;SDS011;2338;49.602;8.722;2024-03-22T09:15:57;18.10;;;13.37;;
4650;SDS011;2338;49.602;8.722;2024-03-22T09:18:43;21.80;;;12.57;;
4650;SDS011;2338;49.602;8.722;2024-03-22T09:21:29;20.70;;;12.77;;
4650;SDS011;2338;49.602;8.722;2024-03-22T09:24:15;24.57;;;12.70;;
4650;SDS011;2338;49.602;8.722;2024-03-22T09:27:01;19.53;;;13.07;;
4650;SDS011;2338;49.602;8.722;2024-03-22T09:29:48;14.27;;;10.90;;
4650;SDS011;2338;49.602;8.722;2024-03-22T09:32:34;19.20;;;11.70;;
4650;SDS011;2338;49.602;8.722;2024-03-22T09:35:20;18.27;;;11.40;;
4650;SDS011;2338;49.602;8.722;2024-03-22T09:38:05;18.00;;;10.90;;
4650;SDS011;2338;49.602;8.722;2024-03-22T09:40:51;14.70;;;10.33;;
4650;SDS011;2338;49.602;8.722;2024-03-22T09:43:38;19.20;;;12.30;;
4650;SDS011;2338;49.602;8.722;2024-03-22T09:46:23;19.00;;;11.13;;
4650;SDS011;2338;49.602;8.722;2024-03-22T09:49:09;20.00;;;11.40;;
4650;SDS011;2338;49.602;8.722;2024-03-22T09:51:55;12.00;;;7.10;;
4650;SDS011;2338;49.602;8.722;2024-03-22T09:54:41;8.43;;;6.20;;
4650;SDS011;2338;49.602;8.722;2024-03-22T09:57:26;10.50;;;6.67;;
4650;SDS011;2338;49.602;8.722;2024-03-22T10:00:12;12.40;;;6.50;;
4650;SDS011;2338;49.602;8.722;2024-03-22T10:02:58;10.80;;;5.83;;
4650;SDS011;2338;49.602;8.722;2024-03-22T10:05:45;9.50;;;5.70;;
4650;SDS011;2338;49.602;8.722;2024-03-22T10:08:33;11.50;;;6.73;;
4650;SDS011;2338;49.602;8.722;2024-03-22T10:11:19;10.30;;;6.17;;
4650;SDS011;2338;49.602;8.722;2024-03-22T10:14:04;7.83;;;5.77;;
4650;SDS011;2338;49.602;8.722;2024-03-22T10:16:50;11.67;;;6.07;;
4650;SDS011;2338;49.602;8.722;2024-03-22T10:19:36;12.80;;;6.70;;
4650;SDS011;2338;49.602;8.722;2024-03-22T10:22:21;13.37;;;6.50;;
4650;SDS011;2338;49.602;8.722;2024-03-22T10:25:10;10.27;;;6.80;;
4650;SDS011;2338;49.602;8.722;2024-03-22T10:27:55;9.53;;;5.70;;
4650;SDS011;2338;49.602;8.722;2024-03-22T10:30:43;13.47;;;7.10;;
4650;SDS011;2338;49.602;8.722;2024-03-22T10:33:28;11.60;;;7.00;;
4650;SDS011;2338;49.602;8.722;2024-03-22T10:36:14;11.00;;;7.47;;
4650;SDS011;2338;49.602;8.722;2024-03-22T10:39:00;11.87;;;7.20;;
4650;SDS011;2338;49.602;8.722;2024-03-22T10:41:50;12.27;;;7.53;;
4650;SDS011;2338;49.602;8.722;2024-03-22T10:44:35;12.37;;;7.90;;
4650;SDS011;2338;49.602;8.722;2024-03-22T10:47:20;14.40;;;7.40;;
4650;SDS011;2338;49.602;8.722;2024-03-22T10:50:08;12.50;;;7.60;;
4650;SDS011;2338;49.602;8.722;2024-03-22T10:52:56;11.77;;;8.17;;
4650;SDS011;2338;49.602;8.722;2024-03-22T10:55:47;13.27;;;7.50;;
4650;SDS011;2338;49.602;8.722;2024-03-22T10:58:34;11.37;;;7.80;;
4650;SDS011;2338;49.602;8.722;2024-03-22T11:01:26;11.97;;;8.80;;
4650;SDS011;2338;49.602;8.722;2024-03-22T11:04:15;11.23;;;7.70;;
4650;SDS011;2338;49.602;8.722;2024-03-22T11:07:01;18.13;;;7.83;;
4650;SDS011;2338;49.602;8.722;2024-03-22T11:09:51;12.57;;;7.57;;
4650;SDS011;2338;49.602;8.722;2024-03-22T11:12:37;9.80;;;7.33;;
4650;SDS011;2338;49.602;8.722;2024-03-22T11:15:23;13.00;;;8.00;;
4650;SDS011;2338;49.602;8.722;2024-03-22T11:18:08;13.13;;;7.90;;
4650;SDS011;2338;49.602;8.722;2024-03-22T11:20:53;13.93;;;6.93;;
4650;SDS011;2338;49.602;8.722;2024-03-22T11:23:39;13.73;;;7.27;;
4650;SDS011;2338;49.602;8.722;2024-03-22T11:26:24;9.87;;;6.60;;
4650;SDS011;2338;49.602;8.722;2024-03-22T11:29:09;10.90;;;7.67;;
4650;SDS011;2338;49.602;8.722;2024-03-22T11:31:56;8.90;;;6.80;;
4650;SDS011;2338;49.602;8.722;2024-03-22T11:34:41;8.57;;;6.47;;
4650;SDS011;2338;49.602;8.722;2024-03-22T11:37:27;10.47;;;7.30;;
4650;SDS011;2338;49.602;8.722;2024-03-22T11:40:13;10.97;;;6.53;;
4650;SDS011;2338;49.602;8.722;2024-03-22T11:42:58;9.73;;;6.60;;
4650;SDS011;2338;49.602;8.722;2024-03-22T11:45:44;12.93;;;8.07;;
4650;SDS011;2338;49.602;8.722;2024-03-22T11:48:31;13.50;;;7.20;;
4650;SDS011;2338;49.602;8.722;2024-03-22T11:51:17;10.43;;;8.30;;
4650;SDS011;2338;49.602;8.722;2024-03-22T11:54:02;9.93;;;7.03;;
4650;SDS011;2338;49.602;8.722;2024-03-22T11:56:49;14.50;;;8.03;;
4650;SDS011;2338;49.602;8.722;2024-03-22T11:59:34;10.80;;;7.27;;
4650;SDS011;2338;49.602;8.722;2024-03-22T12:02:19;14.50;;;7.87;;
4650;SDS011;2338;49.602;8.722;2024-03-22T12:05:06;11.33;;;7.00;;
4650;SDS011;2338;49.602;8.722;2024-03-22T12:07:52;10.60;;;6.30;;
4650;SDS011;2338;49.602;8.722;2024-03-22T12:10:36;14.20;;;6.43;;
4650;SDS011;2338;49.602;8.722;2024-03-22T12:13:22;7.80;;;5.80;;
4650;SDS011;2338;49.602;8.722;2024-03-22T12:16:06;9.47;;;6.53;;
4650;SDS011;2338;49.602;8.722;2024-03-22T12:18:52;11.53;;;6.40;;
4650;SDS011;2338;49.602;8.722;2024-03-22T12:21:38;12.80;;;7.10;;
4650;SDS011;2338;49.602;8.722;2024-03-22T12:24:23;11.60;;;6.40;;
4650;SDS011;2338;49.602;8.722;2024-03-22T12:27:09;6.10;;;5.17;;
4650;SDS011;2338;49.602;8.722;2024-03-22T12:29:54;8.83;;;5.20;;
4650;SDS011;2338;49.602;8.722;2024-03-22T12:32:39;7.13;;;5.90;;
4650;SDS011;2338;49.602;8.722;2024-03-22T12:35:50;6.13;;;5.30;;
4650;SDS011;2338;49.602;8.722;2024-03-22T12:38:39;10.70;;;5.20;;
4650;SDS011;2338;49.602;8.722;2024-03-22T12:41:24;8.70;;;5.00;;
4650;SDS011;2338;49.602;8.722;2024-03-22T12:44:10;9.10;;;5.80;;
4650;SDS011;2338;49.602;8.722;2024-03-22T12:46:55;7.33;;;5.97;;
4650;SDS011;2338;49.602;8.722;2024-03-22T12:49:40;8.10;;;5.97;;
4650;SDS011;2338;49.602;8.722;2024-03-22T12:52:25;9.37;;;6.10;;
4650;SDS011;2338;49.602;8.722;2024-03-22T12:55:12;10.07;;;5.53;;
4650;SDS011;2338;49.602;8.722;2024-03-22T12:57:56;9.27;;;6.27;;
4650;SDS011;2338;49.602;8.722;2024-03-22T13:00:42;8.87;;;5.80;;
4650;SDS011;2338;49.602;8.722;2024-03-22T13:03:27;10.50;;;5.43;;
4650;SDS011;2338;49.602;8.722;2024-03-22T13:06:13;7.57;;;5.50;;
4650;SDS011;2338;49.602;8.722;2024-03-22T13:08:58;8.50;;;5.37;;
4650;SDS011;2338;49.602;8.722;2024-03-22T13:11:44;12.57;;;6.33;;
4650;SDS011;2338;49.602;8.722;2024-03-22T13:14:30;7.70;;;5.50;;
4650;SDS011;2338;49.602;8.722;2024-03-22T13:17:15;7.00;;;5.60;;
4650;SDS011;2338;49.602;8.722;2024-03-22T13:20:01;13.93;;;6.40;;
4650;SDS011;2338;49.602;8.722;2024-03-22T13:22:49;12.03;;;8.40;;
4650;SDS011;2338;49.602;8.722;2024-03-22T13:25:34;8.23;;;5.50;;
4650;SDS011;2338;49.602;8.722;2024-03-22T13:28:21;11.53;;;5.70;;
4650;SDS011;2338;49.602;8.722;2024-03-22T13:31:07;6.53;;;4.90;;
4650;SDS011;2338;49.602;8.722;2024-03-22T13:33:52;14.03;;;7.40;;
4650;SDS011;2338;49.602;8.722;2024-03-22T13:36:38;13.40;;;5.40;;
4650;SDS011;2338;49.602;8.722;2024-03-22T13:39:22;10.37;;;5.63;;
4650;SDS011;2338;49.602;8.722;2024-03-22T13:42:08;8.70;;;4.87;;
4650;SDS011;2338;49.602;8.722;2024-03-22T13:44:55;12.27;;;4.90;;
4650;SDS011;2338;49.602;8.722;2024-03-22T13:47:41;7.97;;;4.83;;
4650;SDS011;2338;49.602;8.722;2024-03-22T13:50:26;5.23;;;4.13;;
4650;SDS011;2338;49.602;8.722;2024-03-22T13:53:12;9.87;;;3.60;;
4650;SDS011;2338;49.602;8.722;2024-03-22T13:55:58;6.23;;;4.50;;
4650;SDS011;2338;49.602;8.722;2024-03-22T13:58:45;7.50;;;5.10;;
4650;SDS011;2338;49.602;8.722;2024-03-22T14:01:31;15.40;;;5.37;;
4650;SDS011;2338;49.602;8.722;2024-03-22T14:04:17;8.93;;;4.50;;
4650;SDS011;2338;49.602;8.722;2024-03-22T14:07:03;7.33;;;4.77;;
4650;SDS011;2338;49.602;8.722;2024-03-22T14:09:49;7.40;;;4.77;;
4650;SDS011;2338;49.602;8.722;2024-03-22T14:12:34;7.53;;;5.20;;
4650;SDS011;2338;49.602;8.722;2024-03-22T14:15:19;17.10;;;8.03;;
4650;SDS011;2338;49.602;8.722;2024-03-22T14:18:06;13.03;;;8.30;;
4650;SDS011;2338;49.602;8.722;2024-03-22T14:20:52;23.30;;;12.90;;
4650;SDS011;2338;49.602;8.722;2024-03-22T14:23:37;16.60;;;9.40;;
4650;SDS011;2338;49.602;8.722;2024-03-22T14:26:22;20.27;;;10.80;;
4650;SDS011;2338;49.602;8.722;2024-03-22T14:29:07;14.03;;;7.33;;
4650;SDS011;2338;49.602;8.722;2024-03-22T14:31:53;15.03;;;8.37;;
4650;SDS011;2338;49.602;8.722;2024-03-22T14:34:40;10.93;;;5.17;;
4650;SDS011;2338;49.602;8.722;2024-03-22T14:37:26;17.23;;;6.53;;
4650;SDS011;2338;49.602;8.722;2024-03-22T14:40:10;9.90;;;7.03;;
4650;SDS011;2338;49.602;8.722;2024-03-22T14:42:57;10.17;;;5.80;;
4650;SDS011;2338;49.602;8.722;2024-03-22T14:45:42;10.03;;;5.37;;
4650;SDS011;2338;49.602;8.722;2024-03-22T14:48:28;7.90;;;5.50;;
4650;SDS011;2338;49.602;8.722;2024-03-22T14:51:14;8.33;;;5.40;;
4650;SDS011;2338;49.602;8.722;2024-03-22T14:53:59;10.53;;;5.10;;
4650;SDS011;2338;49.602;8.722;2024-03-22T14:56:44;6.90;;;4.60;;
4650;SDS011;2338;49.602;8.722;2024-03-22T14:59:30;9.37;;;5.67;;
4650;SDS011;2338;49.602;8.722;2024-03-22T15:02:14;13.00;;;5.07;;
4650;SDS011;2338;49.602;8.722;2024-03-22T15:05:00;9.73;;;4.97;;
4650;SDS011;2338;49.602;8.722;2024-03-22T15:07:46;11.87;;;5.73;;
4650;SDS011;2338;49.602;8.722;2024-03-22T15:10:32;12.50;;;5.47;;
4650;SDS011;2338;49.602;8.722;2024-03-22T15:13:17;11.70;;;5.00;;
4650;SDS011;2338;49.602;8.722;2024-03-22T15:16:03;15.90;;;6.33;;
4650;SDS011;2338;49.602;8.722;2024-03-22T15:18:48;7.73;;;4.47;;
4650;SDS011;2338;49.602;8.722;2024-03-22T15:21:35;8.63;;;5.33;;
4650;SDS011;2338;49.602;8.722;2024-03-22T15:24:22;13.20;;;5.13;;
4650;SDS011;2338;49.602;8.722;2024-03-22T15:27:07;12.23;;;5.67;;
4650;SDS011;2338;49.602;8.722;2024-03-22T15:29:53;9.77;;;6.90;;
4650;SDS011;2338;49.602;8.722;2024-03-22T15:32:37;10.97;;;7.30;;
4650;SDS011;2338;49.602;8.722;2024-03-22T15:35:23;16.53;;;6.93;;
4650;SDS011;2338;49.602;8.722;2024-03-22T15:38:09;15.00;;;5.83;;
4650;SDS011;2338;49.602;8.722;2024-03-22T15:40:57;11.23;;;6.27;;
4650;SDS011;2338;49.602;8.722;2024-03-22T15:43:41;7.73;;;5.37;;
4650;SDS011;2338;49.602;8.722;2024-03-22T15:46:27;10.17;;;5.23;;
4650;SDS011;2338;49.602;8.722;2024-03-22T15:49:12;7.27;;;5.13;;
4650;SDS011;2338;49.602;8.722;2024-03-22T15:51:58;7.87;;;4.60;;
4650;SDS011;2338;49.602;8.722;2024-03-22T15:54:42;6.33;;;3.97;;
4650;SDS011;2338;49.602;8.722;2024-03-22T15:57:29;8.70;;;5.37;;
4650;SDS011;2338;49.602;8.722;2024-03-22T16:00:14;7.33;;;5.00;;
4650;SDS011;2338;49.602;8.722;2024-03-22T16:03:01;7.13;;;4.60;;
4650;SDS011;2338;49.602;8.722;2024-03-22T16:05:48;6.27;;;4.50;;
4650;SDS011;2338;49.602;8.722;2024-03-22T16:08:35;5.37;;;4.40;;
4650;SDS011;2338;49.602;8.722;2024-03-22T16:11:19;5.43;;;4.10;;
4650;SDS011;2338;49.602;8.722;2024-03-22T16:14:06;10.00;;;4.67;;
4650;SDS011;2338;49.602;8.722;2024-03-22T16:16:51;8.87;;;4.83;;
4650;SDS011;2338;49.602;8.722;2024-03-22T16:19:36;6.37;;;4.73;;
4650;SDS011;2338;49.602;8.722;2024-03-22T16:22:22;6.90;;;4.60;;
4650;SDS011;2338;49.602;8.722;2024-03-22T16:25:07;13.90;;;5.33;;
4650;SDS011;2338;49.602;8.722;2024-03-22T16:27:53;8.23;;;4.63;;
4650;SDS011;2338;49.602;8.722;2024-03-22T16:30:39;7.10;;;4.63;;
4650;SDS011;2338;49.602;8.722;2024-03-22T16:33:25;5.43;;;4.43;;
4650;SDS011;2338;49.602;8.722;2024-03-22T16:36:09;8.03;;;4.77;;
4650;SDS011;2338;49.602;8.722;2024-03-22T16:38:55;8.37;;;4.87;;
4650;SDS011;2338;49.602;8.722;2024-03-22T16:41:40;8.43;;;4.53;;
4650;SDS011;2338;49.602;8.722;2024-03-22T16:44:26;7.53;;;4.20;;
4650;SDS011;2338;49.602;8.722;2024-03-22T16:47:12;7.97;;;4.13;;
4650;SDS011;2338;49.602;8.722;2024-03-22T16:49:58;6.67;;;4.70;;
4650;SDS011;2338;49.602;8.722;2024-03-22T16:52:42;7.67;;;4.43;;